Homestead, Florida
Current Conditions -  °F | °C
As of 12:58 PM on Tuesday 27 Jan 2015 (Local Time) from KHST Reporting Station
Clear Clear  
Wind Chill: 68°   Ceiling: Unl
Heat Index: 68°   Visibility: 10mi
Dew Point: 39°   Wind: 13mph
Humidity: 35%   Direction: 290°WNW
Pressure: 30.04"   Gusts: NA
Location:  25.48°N, 80.46°W
Report Text: KHST 271758Z AUTO 29011KT 10SM CLR 20/04 A3004 RMK AO2 SLP176 T01980039 10198 20106 58014
Loading
Personal Weather Stations






























Interactive Weather Map New forecast layout! Learn more

10-Day Weather Forecast

Advertisements
Track Severe Weather on mobile